Time;durP1;ratioP1;P1;durP2;ratioP2;P2;SDS_P1;SDS_P2;PMS_P1;PMS_P2;Temp;Humidity;BMP_temperature;BMP_pressure;BME280_temperature;BME280_humidity;BME280_pressure;Samples;Min_cycle;Max_cycle;Signal;HPM_P1;HPM_P2
2022/05/23 00:02:16;;;;;;;6.00;3.40;;;;;;;12.82;53.14;99801.78;125078;1098;104201;-74
2022/05/23 00:04:47;;;;;;;6.33;3.40;;;;;;;12.80;53.70;99800.89;125083;1099;104162;-74
2022/05/23 00:07:27;;;;;;;5.80;3.30;;;;;;;12.79;53.73;99799.11;125176;1099;112242;-74
2022/05/23 00:10:00;;;;;;;8.37;3.40;;;;;;;12.77;53.87;99808.73;125253;1099;102788;-74
2022/05/23 00:12:33;;;;;;;6.60;3.33;;;;;;;12.75;53.73;99805.20;125121;1099;102470;-74
2022/05/23 00:15:08;;;;;;;8.17;3.57;;;;;;;12.74;53.56;99800.80;125102;1099;104175;-74
2022/05/23 00:17:43;;;;;;;5.30;3.40;;;;;;;12.74;53.57;99803.42;125195;1098;104073;-74
2022/05/23 00:20:25;;;;;;;6.10;3.40;;;;;;;12.70;54.04;99798.95;125171;1099;104557;-75
2022/05/23 00:22:58;;;;;;;4.83;3.20;;;;;;;12.70;54.57;99802.50;125220;1099;102870;-74
2022/05/23 00:25:31;;;;;;;6.70;3.43;;;;;;;12.69;54.41;99797.21;124776;1099;104321;-74
2022/05/23 00:28:09;;;;;;;6.90;3.43;;;;;;;12.68;54.00;99796.30;124781;1099;104242;-75
2022/05/23 00:30:45;;;;;;;4.30;3.10;;;;;;;12.70;54.04;99793.70;124722;1102;102532;-75
2022/05/23 00:36:11;;;;;;;3.73;2.97;;;;;;;12.74;54.44;99791.14;125009;1099;102875;-74
2022/05/23 00:38:43;;;;;;;5.97;3.03;;;;;;;12.76;54.16;99786.80;125169;1099;104262;-74
2022/05/23 00:44:36;;;;;;;6.47;3.20;;;;;;;12.73;54.48;99783.22;124584;1102;104229;-74
2022/05/23 00:47:20;;;;;;;7.00;3.30;;;;;;;12.69;54.58;99786.68;124459;1102;102222;-74
2022/05/23 00:49:57;;;;;;;6.50;3.30;;;;;;;12.64;55.05;99777.84;124956;1099;102826;-75
2022/05/23 00:52:32;;;;;;;4.73;3.37;;;;;;;12.59;54.92;99768.11;125183;1099;104157;-75
2022/05/23 00:55:09;;;;;;;8.00;3.57;;;;;;;12.57;55.00;99774.20;125199;1099;104602;-74
2022/05/23 00:57:45;;;;;;;4.03;3.20;;;;;;;12.51;55.68;99775.01;125012;1099;104249;-75
2022/05/23 01:00:21;;;;;;;5.33;3.07;;;;;;;12.46;56.08;99776.66;125080;1099;104264;-75
2022/05/23 01:02:54;;;;;;;;;;;;;;;12.39;57.13;99766.91;124946;1099;102765;-74
2022/05/23 01:05:26;;;;;;;4.90;2.90;;;;;;;12.34;56.40;99768.55;125012;1099;102851;-74
2022/05/23 01:08:00;;;;;;;4.93;2.97;;;;;;;12.29;56.81;99771.11;124894;1099;102201;-74
2022/05/23 01:10:34;;;;;;;4.22;3.00;;;;;;;12.23;56.92;99764.02;124553;1099;104271;-75
2022/05/23 01:13:07;;;;;;;4.60;2.93;;;;;;;12.20;56.36;99761.34;124999;1099;104255;-74
2022/05/23 01:15:40;;;;;;;7.47;3.12;;;;;;;12.19;56.82;99764.81;124913;1099;104252;-74
2022/05/23 01:18:11;;;;;;;6.47;2.93;;;;;;;12.16;57.27;99767.39;124985;1099;104569;-74
2022/05/23 01:20:45;;;;;;;3.80;3.05;;;;;;;12.13;57.54;99761.20;125021;1099;104166;-75
2022/05/23 01:23:27;;;;;;;5.20;2.73;;;;;;;12.09;58.13;99762.91;124965;1099;103346;-75
2022/05/23 01:26:15;;;;;;;3.77;2.70;;;;;;;12.03;57.43;99752.27;124946;1099;102054;-74
2022/05/23 01:28:53;;;;;;;4.57;2.70;;;;;;;12.01;57.96;99759.23;125187;1099;102211;-74
2022/05/23 01:31:41;;;;;;;4.33;2.80;;;;;;;12.00;57.70;99757.48;124512;1099;102216;-74
2022/05/23 01:34:19;;;;;;;3.20;2.60;;;;;;;12.00;57.90;99753.09;124499;1100;104198;-74
2022/05/23 01:37:21;;;;;;;6.33;2.60;;;;;;;12.02;57.88;99761.01;124455;1099;104329;-74
2022/05/23 01:40:08;;;;;;;7.87;3.17;;;;;;;12.02;58.04;99761.01;124545;1102;104414;-75
2022/05/23 01:42:46;;;;;;;5.17;2.60;;;;;;;11.99;57.95;99756.57;124570;1102;102765;-75
2022/05/23 01:45:25;;;;;;;5.35;2.58;;;;;;;12.00;57.81;99750.46;124681;1101;104784;-74
2022/05/23 01:47:57;;;;;;;5.80;2.50;;;;;;;12.01;58.18;99748.70;124452;1102;104223;-74
2022/05/23 01:50:28;;;;;;;4.23;2.77;;;;;;;12.02;57.91;99747.86;124583;1099;104326;-74
2022/05/23 01:53:08;;;;;;;5.13;2.70;;;;;;;12.04;57.88;99748.77;125177;1099;102877;-74
2022/05/23 01:55:50;;;;;;;3.23;2.53;;;;;;;12.05;58.13;99745.28;124703;1102;102650;-74
2022/05/23 02:01:33;;;;;;;6.07;3.00;;;;;;;12.11;58.07;99744.52;124531;1101;102257;-75
2022/05/23 02:04:08;;;;;;;7.15;2.62;;;;;;;12.11;58.45;99750.66;124997;1099;104331;-74
2022/05/23 02:06:48;;;;;;;4.73;2.70;;;;;;;12.09;58.99;99747.13;124896;1099;102417;-74
2022/05/23 02:09:28;;;;;;;4.60;2.67;;;;;;;12.05;58.20;99742.66;124581;1100;104157;-74
2022/05/23 02:12:22;;;;;;;5.72;3.05;;;;;;;12.00;58.89;99744.33;125116;1099;103578;-75
2022/05/23 02:15:00;;;;;;;4.77;2.83;;;;;;;11.95;58.78;99740.71;125015;1099;104169;-74
2022/05/23 02:17:57;;;;;;;5.67;3.17;;;;;;;11.92;59.06;99748.51;125061;1098;103199;-75
2022/05/23 02:20:30;;;;;;;4.92;2.83;;;;;;;11.88;59.01;99748.45;125005;1099;104700;-74
2022/05/23 02:23:02;;;;;;;6.47;2.83;;;;;;;11.87;58.84;99740.53;124997;1099;104172;-74
2022/05/23 02:25:34;;;;;;;3.20;2.77;;;;;;;11.85;59.19;99737.88;125079;1098;104252;-75
2022/05/23 02:28:20;;;;;;;3.73;2.33;;;;;;;11.83;59.39;99744.86;124838;1099;104267;-75
2022/05/23 02:30:51;;;;;;;5.87;2.50;;;;;;;11.82;59.48;99747.46;124543;1099;104287;-74
2022/05/23 02:33:41;;;;;;;4.40;2.50;;;;;;;11.79;59.06;99742.15;125078;1099;102233;-74
2022/05/23 02:36:29;;;;;;;5.10;2.57;;;;;;;11.81;59.51;99740.42;124523;1099;104323;-74
2022/05/23 02:39:04;;;;;;;3.40;2.60;;;;;;;11.80;59.09;99747.44;125024;1099;101955;-74
2022/05/23 02:41:36;;;;;;;6.87;2.60;;;;;;;11.79;59.17;99745.66;124621;1099;103745;-73
2022/05/23 02:44:09;;;;;;;6.23;2.80;;;;;;;11.81;59.60;99743.05;124989;1099;103450;-74
2022/05/23 02:46:42;;;;;;;4.23;2.60;;;;;;;11.81;59.36;99743.95;125000;1099;104249;-74
2022/05/23 02:49:16;;;;;;;5.50;2.60;;;;;;;11.81;59.22;99756.20;125116;1099;104191;-74
2022/05/23 02:51:55;;;;;;;4.83;2.42;;;;;;;11.80;58.96;99747.44;125157;1099;102465;-74
2022/05/23 02:54:30;;;;;;;6.30;2.60;;;;;;;11.80;58.94;99743.93;124706;1099;102357;-76
2022/05/23 02:57:21;;;;;;;6.57;3.27;;;;;;;11.81;58.95;99745.68;125170;1097;102293;-75
2022/05/23 02:59:54;;;;;;;5.90;2.65;;;;;;;11.82;59.16;99753.59;124866;1099;104160;-74
2022/05/23 03:05:26;;;;;;;4.07;2.50;;;;;;;11.86;59.23;99758.06;125253;1099;104282;-74
2022/05/23 03:08:05;;;;;;;5.27;2.70;;;;;;;11.90;59.08;99759.00;125299;1099;104374;-74
2022/05/23 03:10:43;;;;;;;5.93;2.83;;;;;;;11.94;59.33;99762.63;125243;1099;104230;-74
2022/05/23 03:13:17;;;;;;;4.23;3.13;;;;;;;11.98;59.69;99760.08;124892;1100;102266;-74
2022/05/23 03:15:56;;;;;;;4.37;2.70;;;;;;;12.00;59.41;99760.98;124724;1099;103460;-75
2022/05/23 03:18:28;;;;;;;5.20;2.70;;;;;;;12.04;59.89;99764.54;124747;1099;102679;-75
2022/05/23 03:21:11;;;;;;;4.53;2.70;;;;;;;12.07;59.83;99764.59;125123;1099;104931;-75
2022/05/23 03:29:23;;;;;;;4.63;2.67;;;;;;;12.16;60.13;99766.52;125009;1099;102295;-75
2022/05/23 03:31:55;;;;;;;5.33;2.60;;;;;;;12.15;60.62;99770.87;124756;1099;102878;-77
2022/05/23 03:34:27;;;;;;;3.93;2.57;;;;;;;12.15;60.76;99762.98;125150;1099;102438;-76
2022/05/23 03:37:00;;;;;;;5.77;2.70;;;;;;;12.15;60.02;99762.10;125035;1099;104163;-76
2022/05/23 03:39:33;;;;;;;4.40;2.80;;;;;;;12.18;60.20;99765.66;125140;1099;104070;-76
2022/05/23 03:42:07;;;;;;;3.87;2.27;;;;;;;12.21;60.13;99768.34;125318;1099;104275;-76
2022/05/23 03:44:45;;;;;;;5.07;2.63;;;;;;;12.25;60.52;99777.20;125310;1099;104259;-76
2022/05/23 03:47:17;;;;;;;5.17;2.70;;;;;;;12.29;60.21;99776.37;125863;1099;104169;-76
2022/05/23 03:49:49;;;;;;;;;;;;;;;12.35;60.77;99775.59;126183;1099;104313;-76
2022/05/23 03:52:21;;;;;;;9.87;2.80;;;;;;;12.38;59.91;99768.63;125524;1099;101882;-76
2022/05/23 03:54:55;;;;;;;5.65;2.35;;;;;;;12.44;59.87;99774.88;124961;1099;104160;-75
2022/05/23 03:57:28;;;;;;;4.37;2.50;;;;;;;12.50;59.80;99772.35;125367;1099;102180;-75
2022/05/23 04:00:01;;;;;;;5.47;2.40;;;;;;;12.57;59.71;99777.73;125061;1099;104776;-75
2022/05/23 04:02:36;;;;;;;9.53;2.30;;;;;;;12.66;59.94;99786.63;124666;1102;104270;-75
2022/05/23 04:05:12;;;;;;;5.30;2.40;;;;;;;12.70;59.66;99786.70;125358;1099;104217;-75
2022/05/23 04:08:08;;;;;;;3.67;2.00;;;;;;;12.71;59.87;99787.58;124893;1102;103295;-76
2022/05/23 04:10:48;;;;;;;6.77;2.93;;;;;;;12.72;59.71;99787.61;124667;1102;102805;-75
2022/05/23 04:13:21;;;;;;;5.67;2.52;;;;;;;12.75;59.89;99785.02;124697;1102;102870;-75
2022/05/23 04:15:54;;;;;;;4.67;2.40;;;;;;;12.79;59.60;99785.94;124800;1102;104227;-75
2022/05/23 04:18:26;;;;;;;5.03;2.90;;;;;;;12.84;60.10;99786.02;124777;1102;104188;-75
2022/05/23 04:21:03;;;;;;;4.03;2.70;;;;;;;12.87;59.67;99789.60;124506;1105;104682;-75
2022/05/23 04:23:39;;;;;;;4.23;2.50;;;;;;;12.91;59.70;99788.77;124455;1105;104195;-75
2022/05/23 04:26:13;;;;;;;4.40;2.70;;;;;;;12.97;59.36;99790.61;124485;1102;102810;-75
2022/05/23 04:28:45;;;;;;;2.83;2.20;;;;;;;13.04;59.70;99791.58;124862;1102;102145;-75
2022/05/23 04:31:19;;;;;;;3.80;2.30;;;;;;;13.11;59.33;99794.32;124706;1102;104156;-75
2022/05/23 04:37:08;;;;;;;8.03;2.80;;;;;;;13.27;59.55;99792.77;124464;1105;104232;-75
2022/05/23 04:39:52;;;;;;;6.20;2.50;;;;;;;13.35;59.57;99789.40;124464;1105;104319;-75
2022/05/23 04:42:25;;;;;;;5.40;2.60;;;;;;;13.45;59.48;99783.39;124504;1105;104335;-75
2022/05/23 04:44:56;;;;;;;4.63;2.87;;;;;;;13.53;59.10;99786.13;124537;1105;102861;-75
2022/05/23 04:51:05;;;;;;;10.50;3.37;;;;;;;13.80;58.96;99782.91;124774;1102;102922;-78
2022/05/23 04:53:44;;;;;;;7.00;2.60;;;;;;;13.97;58.74;99780.45;124644;1102;106963;-75
2022/05/23 04:56:30;;;;;;;3.93;2.73;;;;;;;14.11;58.98;99789.39;124849;1102;103003;-75
2022/05/23 04:59:24;;;;;;;4.27;2.70;;;;;;;14.24;59.13;99786.88;124675;1102;102682;-74
2022/05/23 05:01:56;;;;;;;4.15;2.80;;;;;;;14.31;58.32;99781.66;124600;1102;104510;-75
2022/05/23 05:04:32;;;;;;;6.47;2.67;;;;;;;14.32;58.17;99785.17;124710;1102;104524;-75
2022/05/23 05:07:12;;;;;;;4.73;3.00;;;;;;;14.33;58.28;99790.47;124767;1102;104223;-75
2022/05/23 05:09:46;;;;;;;7.63;3.10;;;;;;;14.30;58.29;99795.72;124850;1100;104050;-74
2022/05/23 05:12:19;;;;;;;5.25;2.80;;;;;;;14.30;57.68;99803.63;125226;1099;104220;-75
2022/05/23 05:14:54;;;;;;;4.57;3.20;;;;;;;14.26;57.76;99796.58;125237;1099;101982;-74
2022/05/23 05:17:40;;;;;;;5.63;2.77;;;;;;;14.28;58.10;99801.88;124970;1099;104246;-77
2022/05/23 05:20:25;;;;;;;12.00;2.90;;;;;;;14.30;58.00;99801.00;124863;1099;104185;-75
2022/05/23 05:23:32;;;;;;;5.57;3.10;;;;;;;14.30;58.31;99803.63;124762;1102;103315;-75
2022/05/23 05:26:44;;;;;;;7.30;3.00;;;;;;;14.43;57.20;99803.75;124721;1102;104301;-75
2022/05/23 05:29:16;;;;;;;8.30;3.20;;;;;;;14.51;57.37;99797.67;124657;1102;104367;-75
2022/05/23 05:31:53;;;;;;;7.37;3.00;;;;;;;14.52;57.68;99802.09;124759;1102;104424;-76
2022/05/23 05:34:31;;;;;;;7.30;3.10;;;;;;;14.58;57.45;99806.52;124484;1102;102791;-77
2022/05/23 05:37:06;;;;;;;4.95;3.15;;;;;;;14.63;57.03;99799.58;124966;1102;104240;-78
2022/05/23 05:43:29;;;;;;;6.07;3.10;;;;;;;14.87;57.17;99803.27;125704;1102;104083;-77
2022/05/23 05:46:44;;;;;;;4.75;2.90;;;;;;;15.08;57.29;99803.42;125425;1102;118001;-76
2022/05/23 05:49:43;;;;;;;8.30;2.90;;;;;;;15.21;56.54;99804.37;125390;1105;102912;-76
2022/05/23 05:56:24;;;;;;;7.77;2.30;;;;;;;15.42;55.95;99803.58;125360;1102;103116;-78
2022/05/23 05:59:30;;;;;;;6.47;2.37;;;;;;;15.48;55.11;99793.93;125346;1106;104181;-79
2022/05/23 06:02:12;;;;;;;6.00;2.30;;;;;;;15.64;55.65;99808.97;125493;1102;104845;-81
2022/05/23 06:04:45;;;;;;;4.07;2.20;;;;;;;15.74;55.27;99809.91;125509;1102;104281;-78
2022/05/23 06:13:58;;;;;;;4.70;2.30;;;;;;;16.06;54.75;99802.06;125426;1102;102525;-78
2022/05/23 06:16:45;;;;;;;3.57;2.00;;;;;;;16.18;54.22;99798.58;124696;1105;103082;-78
2022/05/23 06:19:37;;;;;;;5.10;2.33;;;;;;;16.25;52.73;99792.42;125322;1102;107938;-80
2022/05/23 06:22:27;;;;;;;5.27;1.87;;;;;;;16.48;53.01;99792.41;125493;1102;104117;-79
2022/05/23 06:25:15;;;;;;;2.57;2.20;;;;;;;16.61;52.28;99789.77;125435;1102;104272;-80
2022/05/23 06:27:49;;;;;;;3.90;2.23;;;;;;;16.73;52.22;99797.70;125551;1102;102990;-80
2022/05/23 06:30:30;;;;;;;4.37;2.00;;;;;;;16.75;52.36;99790.66;125487;1102;103490;-78
2022/05/23 06:33:47;;;;;;;2.30;2.10;;;;;;;16.77;52.32;99788.88;125521;1102;102867;-75
2022/05/23 06:36:52;;;;;;;5.67;2.47;;;;;;;16.80;51.52;99794.18;125713;1102;103176;-78
2022/05/23 06:39:40;;;;;;;5.97;2.40;;;;;;;16.89;51.42;99788.91;125454;1102;104185;-78
2022/05/23 06:42:39;;;;;;;5.63;2.40;;;;;;;16.92;50.69;99789.77;125464;1102;102203;-81
2022/05/23 06:45:45;;;;;;;4.47;2.20;;;;;;;16.83;50.52;99791.53;125529;1103;102182;-78
2022/05/23 06:49:06;;;;;;;;;;;;;;;16.82;50.72;99779.16;125227;1103;102343;-77
2022/05/23 06:56:06;;;;;;;4.77;2.20;;;;;;;17.03;50.00;99782.68;125326;1105;103057;-78
2022/05/23 06:59:35;;;;;;;;;;;;;;;;;;;;;
2022/05/23 07:02:58;;;;;;;;;;;;;;;;;;;;;
2022/05/23 07:12:43;;;;;;;3.40;1.90;;;;;;;17.79;47.48;99764.72;125022;1105;104255;-79
2022/05/23 07:15:36;;;;;;;4.63;2.27;;;;;;;17.76;47.48;99770.03;125131;1105;102282;-79
2022/05/23 07:18:32;;;;;;;3.70;2.17;;;;;;;17.68;46.49;99766.55;125076;1109;104204;-80
2022/05/23 07:21:54;;;;;;;;;;;;;;;;;;;;;
2022/05/23 07:24:57;;;;;;;;;;;;;;;;;;;;;
2022/05/23 07:27:34;;;;;;;4.07;2.90;;;;;;;17.58;47.30;99755.11;124629;1112;104239;-76
2022/05/23 07:30:19;;;;;;;3.77;2.37;;;;;;;17.54;47.58;99758.66;124302;1111;102888;-76
2022/05/23 07:32:59;;;;;;;5.33;2.23;;;;;;;17.54;47.74;99769.27;124782;1109;105658;-79
2022/05/23 07:36:25;;;;;;;8.57;2.40;;;;;;;17.53;47.49;99756.87;125035;1105;102463;-77
2022/05/23 07:39:24;;;;;;;2.77;2.20;;;;;;;17.44;47.33;99763.13;124988;1105;103427;-76
2022/05/23 07:42:29;;;;;;;2.00;1.80;;;;;;;17.48;46.68;99764.86;124512;1102;104526;-77
2022/05/23 07:45:31;;;;;;;2.40;2.20;;;;;;;17.75;46.50;99758.55;125549;1102;102648;-80
2022/05/23 07:48:11;;;;;;;4.77;1.63;;;;;;;17.95;45.92;99758.47;125556;1102;103654;-78
2022/05/23 07:50:55;;;;;;;4.50;1.87;;;;;;;18.13;44.85;99770.72;125471;1102;103001;-76
2022/05/23 08:00:34;;;;;;;2.47;1.40;;;;;;;19.16;43.13;99760.97;125732;1099;103309;-81
2022/05/23 08:03:57;;;;;;;3.13;1.50;;;;;;;19.35;43.78;99756.34;125509;1099;104377;-81
2022/05/23 08:10:20;;;;;;;5.60;1.80;;;;;;;19.22;42.89;99765.35;125201;1102;102574;-83
2022/05/23 08:13:42;;;;;;;5.63;2.13;;;;;;;19.23;43.46;99769.78;125514;1102;102221;-77
2022/05/23 08:16:38;;;;;;;;;;;;;;;;;;;;;
2022/05/23 08:19:11;;;;;;;4.37;1.90;;;;;;;19.10;43.31;99760.17;125525;1102;104248;-79
2022/05/23 08:21:55;;;;;;;1.90;1.67;;;;;;;19.01;43.34;99774.43;125586;1102;104226;-79
2022/05/23 08:24:33;;;;;;;3.57;1.90;;;;;;;19.01;43.15;99762.04;125632;1101;102973;-80
2022/05/23 08:27:13;;;;;;;3.07;2.00;;;;;;;19.06;43.32;99769.97;125671;1102;104049;-80
2022/05/23 08:29:59;;;;;;;8.38;1.92;;;;;;;19.13;43.05;99768.11;125642;1102;104182;-80
2022/05/23 08:32:38;;;;;;;4.07;1.80;;;;;;;18.91;42.72;99770.99;126212;1102;117934;-80
2022/05/23 08:35:27;;;;;;;3.70;2.20;;;;;;;18.73;43.11;99784.42;125699;1102;104264;-80
2022/05/23 08:38:08;;;;;;;4.00;2.27;;;;;;;18.52;43.30;99781.06;125633;1102;102708;-79
2022/05/23 08:41:13;;;;;;;8.00;2.17;;;;;;;18.27;43.59;99775.94;125564;1102;103440;-80
2022/05/23 08:44:05;;;;;;;4.33;2.43;;;;;;;18.15;43.80;99789.30;125496;1102;104310;-81
2022/05/23 08:47:08;;;;;;;3.90;2.07;;;;;;;17.91;43.85;99779.73;125425;1102;103935;-79
2022/05/23 08:50:03;;;;;;;3.87;2.13;;;;;;;17.72;44.50;99779.80;125562;1102;103329;-78
2022/05/23 08:52:44;;;;;;;2.23;1.87;;;;;;;17.57;44.79;99783.39;125366;1102;102734;-78
2022/05/23 08:55:41;;;;;;;5.90;1.90;;;;;;;17.57;44.94;99788.69;125513;1102;103278;-80
2022/05/23 08:58:41;;;;;;;2.87;2.00;;;;;;;17.60;44.78;99788.68;125537;1102;102281;-80
2022/05/23 09:01:43;;;;;;;2.83;1.67;;;;;;;17.67;44.91;99789.55;125551;1102;103434;-79
2022/05/23 09:04:44;;;;;;;5.50;2.03;;;;;;;17.78;44.58;99776.23;125536;1102;102871;-79
2022/05/23 09:07:35;;;;;;;3.43;1.63;;;;;;;18.03;44.31;99790.28;125579;1102;102644;-80
2022/05/23 09:10:21;;;;;;;4.37;1.40;;;;;;;18.16;44.36;99793.73;125637;1102;103136;-81
2022/05/23 09:13:03;;;;;;;2.47;1.60;;;;;;;18.23;44.51;99790.16;125796;1099;103090;-81
2022/05/23 09:15:50;;;;;;;1.90;1.70;;;;;;;18.18;44.39;99801.69;125670;1102;104101;-79
2022/05/23 09:26:13;;;;;;;2.50;1.43;;;;;;;17.47;44.50;99813.51;125363;1103;111678;-79
2022/05/23 09:29:10;;;;;;;1.50;1.37;;;;;;;17.31;44.59;99806.47;125745;1103;104104;-82
2022/05/23 09:31:57;;;;;;;3.63;1.47;;;;;;;17.19;44.75;99810.93;125512;1106;103014;-79
2022/05/23 09:37:46;;;;;;;2.70;1.67;;;;;;;17.00;45.48;99807.44;125585;1102;102176;-81
2022/05/23 09:40:46;;;;;;;3.13;1.90;;;;;;;16.89;46.32;99814.50;125696;1102;102720;-81
2022/05/23 09:57:52;;;;;;;;;;;;;;;;;;;;;
2022/05/23 10:00:37;;;;;;;2.20;1.90;;;;;;;17.21;46.91;99814.45;125436;1102;104233;-80
2022/05/23 10:03:23;;;;;;;2.85;1.90;;;;;;;17.39;47.33;99812.63;125514;1103;104001;-84
2022/05/23 10:09:48;;;;;;;6.87;2.03;;;;;;;17.72;46.84;99810.77;125839;1102;103414;-81
2022/05/23 10:13:44;;;;;;;2.80;2.07;;;;;;;17.59;47.05;99821.42;125182;1108;103337;-80
2022/05/23 10:16:57;;;;;;;6.10;2.27;;;;;;;17.39;46.63;99821.48;125291;1109;102764;-81
2022/05/23 10:19:32;;;;;;;3.70;2.00;;;;;;;17.15;47.16;99829.50;125241;1112;104083;-80
2022/05/23 10:22:33;;;;;;;3.83;2.30;;;;;;;17.02;46.63;99820.69;125081;1109;104345;-80
2022/05/23 10:25:10;;;;;;;4.13;2.50;;;;;;;16.91;47.36;99827.75;125190;1109;104217;-80
2022/05/23 10:31:23;;;;;;;7.40;2.40;;;;;;;16.82;47.80;99832.14;125475;1109;102273;-80
2022/05/23 10:34:39;;;;;;;8.00;2.40;;;;;;;16.95;47.79;99835.69;125428;1109;102175;-80
2022/05/23 10:43:25;;;;;;;3.50;2.30;;;;;;;17.74;47.08;99819.59;125847;1105;101944;-78
2022/05/23 10:46:08;;;;;;;4.03;2.40;;;;;;;17.80;47.30;99819.56;125382;1109;103886;-79
2022/05/23 10:48:54;;;;;;;4.07;2.27;;;;;;;17.89;47.24;99814.24;125883;1106;102444;-82
2022/05/23 10:51:49;;;;;;;3.45;2.10;;;;;;;18.05;46.86;99809.72;125481;1102;102965;-78
2022/05/23 10:54:53;;;;;;;2.60;2.10;;;;;;;18.20;46.62;99815.82;125628;1102;102761;-82
2022/05/23 10:58:10;;;;;;;3.07;2.30;;;;;;;18.36;46.58;99817.50;125666;1102;102760;-82
2022/05/23 11:01:20;;;;;;;6.43;2.37;;;;;;;18.60;46.77;99813.75;125567;1102;104187;-79
2022/05/23 11:04:18;;;;;;;8.23;2.33;;;;;;;18.86;46.02;99810.91;125423;1103;102593;-79
2022/05/23 11:07:29;;;;;;;2.63;2.10;;;;;;;19.17;45.68;99807.95;125306;1102;104322;-79
2022/05/23 11:10:17;;;;;;;3.63;2.30;;;;;;;19.25;44.59;99815.85;125533;1102;102654;-81
2022/05/23 11:13:11;;;;;;;6.77;2.60;;;;;;;19.24;45.52;99803.44;125451;1102;103919;-78
2022/05/23 11:16:22;;;;;;;2.93;2.00;;;;;;;19.24;45.59;99814.08;125493;1102;104184;-80
2022/05/23 11:19:24;;;;;;;6.97;2.37;;;;;;;19.52;44.81;99814.64;124817;1102;105133;-79
2022/05/23 11:22:08;;;;;;;4.40;2.10;;;;;;;19.80;44.35;99805.48;125289;1102;102677;-81
2022/05/23 11:25:00;;;;;;;7.87;3.00;;;;;;;19.97;44.17;99808.78;125355;1102;102763;-79
2022/05/23 11:34:34;;;;;;;4.70;1.93;;;;;;;19.21;44.07;99820.33;125148;1103;103696;-82
2022/05/23 11:37:48;;;;;;;3.73;1.90;;;;;;;18.97;44.39;99813.47;125344;1102;103367;-82
2022/05/23 11:40:55;;;;;;;3.87;2.17;;;;;;;18.96;44.61;99814.35;125360;1102;102962;-79
2022/05/23 11:44:01;;;;;;;2.70;1.90;;;;;;;19.11;45.07;99809.80;125757;1102;102444;-79
2022/05/23 11:50:30;;;;;;;3.60;2.30;;;;;;;19.00;44.58;99796.61;125836;1099;103385;-81
2022/05/23 11:53:40;;;;;;;4.30;2.50;;;;;;;19.09;44.55;99815.14;125724;1099;108131;-79
2022/05/23 11:57:12;;;;;;;6.00;2.00;;;;;;;19.11;44.38;99809.80;125811;1099;102380;-80
2022/05/23 12:04:14;;;;;;;5.67;2.17;;;;;;;19.11;44.91;99809.80;126226;1102;101864;-81
2022/05/23 12:07:34;;;;;;;5.87;2.20;;;;;;;18.91;44.42;99799.36;126096;1102;103296;-80
2022/05/23 12:10:54;;;;;;;4.03;2.40;;;;;;;18.92;45.20;99803.80;126318;1099;101637;-81
2022/05/23 12:13:57;;;;;;;;;;;;;;;;;;;;;
2022/05/23 12:17:12;;;;;;;6.80;2.77;;;;;;;19.09;45.19;99806.26;125830;1099;102349;-81
2022/05/23 12:19:57;;;;;;;6.50;2.50;;;;;;;18.99;45.41;99811.66;125485;1102;104207;-80
2022/05/23 12:22:59;;;;;;;2.97;2.03;;;;;;;18.76;44.87;99822.50;126135;1102;103155;-83
2022/05/23 12:26:04;;;;;;;2.80;2.20;;;;;;;18.42;45.52;99813.92;125458;1099;104163;-81
2022/05/23 12:28:57;;;;;;;4.20;2.60;;;;;;;18.18;45.72;99818.48;125637;1099;104226;-81
2022/05/23 12:32:18;;;;;;;5.60;2.37;;;;;;;17.97;47.07;99814.20;126088;1099;102671;-81
2022/05/23 12:34:53;;;;;;;6.07;2.60;;;;;;;17.71;46.73;99824.91;126389;1099;102741;-81
2022/05/23 12:41:40;;;;;;;3.93;2.30;;;;;;;17.39;48.97;99820.58;125776;1101;104421;-83
2022/05/23 12:45:19;;;;;;;4.97;2.17;;;;;;;17.19;49.27;99818.02;125819;1102;102317;-82
2022/05/23 12:49:00;;;;;;;4.63;2.33;;;;;;;17.01;49.66;99826.86;125701;1102;102356;-84
2022/05/23 12:52:42;;;;;;;3.57;2.30;;;;;;;17.03;50.14;99833.03;125389;1102;104478;-84
2022/05/23 13:03:08;;;;;;;4.37;1.73;;;;;;;17.50;50.13;99826.76;125537;1102;103445;-85
2022/05/23 13:09:48;;;;;;;2.10;1.57;;;;;;;17.72;49.84;99840.81;125611;1102;103002;-82
2022/05/23 13:17:10;;;;;;;1.67;1.43;;;;;;;17.61;49.50;99827.59;125650;1102;107634;-84
2022/05/23 13:22:51;;;;;;;3.83;2.03;;;;;;;17.45;50.04;99836.48;125619;1102;102845;-83
2022/05/23 13:25:52;;;;;;;3.33;1.43;;;;;;;17.35;49.98;99832.98;125703;1102;102185;-82
2022/05/23 13:28:27;;;;;;;3.17;1.63;;;;;;;17.29;50.22;99842.73;126031;1102;103494;-84
2022/05/23 13:31:21;;;;;;;3.40;1.80;;;;;;;17.20;50.13;99838.31;125642;1102;103075;-80
2022/05/23 13:34:19;;;;;;;4.50;1.70;;;;;;;17.12;51.46;99840.11;125600;1102;103552;-84
2022/05/23 13:37:06;;;;;;;4.67;1.83;;;;;;;17.09;50.95;99848.94;125372;1102;104439;-82
2022/05/23 13:47:09;;;;;;;3.87;1.83;;;;;;;17.15;51.75;99846.27;125523;1102;103094;-85
2022/05/23 13:50:11;;;;;;;2.10;1.37;;;;;;;17.25;51.22;99844.52;126070;1100;104079;-82
2022/05/23 13:53:10;;;;;;;2.90;1.70;;;;;;;17.32;51.28;99838.29;125723;1102;102880;-85
2022/05/23 13:56:28;;;;;;;5.20;1.93;;;;;;;17.64;51.51;99847.03;125680;1099;103668;-81
2022/05/23 14:00:10;;;;;;;4.17;1.63;;;;;;;18.12;51.02;99842.42;126687;1099;102452;-81
2022/05/23 14:03:39;;;;;;;;;;;;;;;;;;;;;
2022/05/23 14:06:51;;;;;;;3.80;1.53;;;;;;;18.61;50.23;99849.20;125956;1099;104281;-79
2022/05/23 14:09:42;;;;;;;2.63;1.20;;;;;;;18.70;49.92;99854.45;125927;1099;103589;-80
2022/05/23 14:12:45;;;;;;;2.40;1.20;;;;;;;18.69;49.53;99848.22;125687;1102;102735;-79
2022/05/23 14:15:28;;;;;;;2.70;1.47;;;;;;;18.74;49.40;99852.63;125861;1102;104111;-79
2022/05/23 14:18:14;;;;;;;2.77;1.47;;;;;;;18.77;49.09;99852.61;125497;1102;102426;-78
2022/05/23 14:20:55;;;;;;;1.83;1.20;;;;;;;18.82;49.40;99856.10;125774;1102;102317;-80
2022/05/23 14:23:44;;;;;;;3.37;1.20;;;;;;;18.88;48.70;99856.08;125785;1102;102981;-77
2022/05/23 14:33:30;;;;;;;4.60;1.00;;;;;;;19.27;47.95;99863.70;125482;1105;104172;-77
2022/05/23 14:36:21;;;;;;;1.73;1.20;;;;;;;19.19;48.32;99859.34;125498;1106;102452;-79
2022/05/23 14:38:56;;;;;;;1.47;1.27;;;;;;;19.17;47.84;99863.80;125532;1105;104162;-78
2022/05/23 14:41:31;;;;;;;1.50;1.17;;;;;;;19.12;47.62;99873.61;125430;1105;104380;-75
2022/05/23 14:44:27;;;;;;;1.60;1.50;;;;;;;18.92;48.08;99865.80;125291;1105;103678;-76
2022/05/23 16:30:27;;;;;;;4.00;1.17;;;;;;;16.71;56.50;99937.23;125156;1109;104396;-77
2022/05/23 17:18:28;;;;;;;2.70;1.77;;;;;;;16.23;58.54;99955.63;127692;1089;106721;-77
2022/05/23 18:01:32;;;;;;;2.57;1.43;;;;;;;15.87;59.74;100017.21;125788;1102;101704;-76
2022/05/23 18:29:51;;;;;;;4.70;2.00;;;;;;;15.41;60.22;100057.36;125791;1102;104093;-76
2022/05/23 18:46:50;;;;;;;4.00;2.20;;;;;;;15.27;61.20;100070.48;125241;1109;104104;-76
2022/05/23 18:56:40;;;;;;;3.05;2.17;;;;;;;15.22;61.21;100086.30;125714;1102;103351;-76
2022/05/23 20:46:32;;;;;;;6.13;2.50;;;;;;;14.42;63.57;100111.70;125782;1102;102835;-76
2022/05/23 20:49:21;;;;;;;5.53;2.37;;;;;;;14.42;64.28;100108.19;125474;1105;102089;-75
2022/05/23 20:51:57;;;;;;;4.63;2.37;;;;;;;14.39;64.68;100109.89;125783;1105;102684;-77
2022/05/23 20:54:26;;;;;;;4.33;2.67;;;;;;;14.37;64.42;100113.41;125396;1105;104149;-77
2022/05/23 20:56:54;;;;;;;6.63;2.43;;;;;;;14.33;64.92;100107.17;125617;1105;104246;-77
2022/05/23 20:59:26;;;;;;;4.03;2.63;;;;;;;14.30;65.02;100109.77;125352;1108;102146;-77
2022/05/23 21:02:01;;;;;;;6.90;3.10;;;;;;;14.26;64.67;100110.61;125456;1109;102104;-77
2022/05/23 21:04:32;;;;;;;6.67;2.50;;;;;;;14.23;65.28;100117.57;125402;1109;102282;-77
2022/05/23 21:07:06;;;;;;;6.90;2.70;;;;;;;14.20;64.84;100124.59;125316;1108;102107;-77
2022/05/23 21:09:38;;;;;;;6.10;3.30;;;;;;;14.17;65.36;100126.30;125430;1105;101951;-77
2022/05/23 21:12:11;;;;;;;3.63;2.47;;;;;;;14.14;65.91;100121.86;125400;1105;102115;-76
2022/05/23 21:14:47;;;;;;;4.90;2.80;;;;;;;14.10;65.73;100127.97;125371;1105;102764;-75